LYTV

Tivat Airport

Tivat, Montenegro
TAF LYTV 192300Z 2000/2024 16005KT 9999 FEW010 BKN030 OVC070 TX12/2013Z TN06/2006Z TEMPO 2000/2008 5000 RA BR PROB30 TEMPO 2000/2006 3000 TSRA FEW010 FEW027CB BKN033 TEMPO 2018/2024 5000 RA BR
Issued Valid From Valid To
Jan-19 @ 23:00 UTC
(12 hours ago)
Jan-20 @ 00:00 UTC
(11 hours ago)
Jan-21 @ 00:00 UTC
(in 13 hours)
Jan-20 @ 00:00 to Jan-21 @ 00:00
TAF LYTV 192300Z 2000/2024 16005KT 9999 FEW010 BKN030 OVC070 TX12/2013Z TN06/2006Z
Wind Visibility Clouds
160° at 5 knots 10,000+ meters
  • Few at 1,000' AGL
  • Broken at 3,000' AGL
  • Overcast at 7,000' AGL
Expired Click to View Jan-20 @ 00:00 to Jan-20 @ 06:00
PROB30 TEMPO 2000/2006 3000 TSRA FEW010 FEW027CB BKN033
Visibility Clouds Conditions
2,993 meters
  • Few at 1,000' AGL
  • Few at 2,700' AGL
  • Broken at 3,300' AGL
  • Thunderstorm
  • Rain
Expired Click to View Jan-20 @ 00:00 to Jan-20 @ 08:00
TEMPO 2000/2008 5000 RA BR
Visibility Conditions
5,005 meters
  • Rain
  • Mist
Temporary Jan-20 @ 18:00 to Jan-21 @ 00:00
TEMPO 2018/2024 5000 RA BR
Visibility Conditions
5,005 meters
  • Rain
  • Mist
TAF LYTV 192300Z 2000/2024 16005KT 9999 FEW010 BKN030 OVC070 TX12/2013Z TN06/2006Z TEMPO 2000/2008 5000 RA BR PROB30 TEMPO 2000/2006 3000 TSRA FEW010 FEW027CB BKN033 TEMPO 2018/2024 5000 RA BR
Issued Jan-19 @ 23:00 UTC
(12 hours ago)
Valid From Jan-20 @ 00:00 UTC
(11 hours ago)
Valid To Jan-21 @ 00:00 UTC
(in 13 hours)
Jan-20 @ 00:00 - Jan-21 @ 00:00
Wind Visibility
160° at 5 knots 10,000+ meters
Clouds
  • Few at 1,000' AGL
  • Broken at 3,000' AGL
  • Overcast at 7,000' AGL
Jan-20 @ 00:00 - Jan-20 @ 06:00
Clouds
  • Few at 1,000' AGL
  • Few at 2,700' AGL
  • Broken at 3,300' AGL
Conditions
  • Thunderstorm
  • Rain
Jan-20 @ 00:00 - Jan-20 @ 08:00
Conditions
  • Rain
  • Mist
Temporary Jan-20 @ 18:00 - Jan-21 @ 00:00
Conditions
  • Rain
  • Mist